Córdoba, Spain

4:12 PM CET on February 12, 2016 (GMT +0100)
Cordoba | | Change Station
CLOSE
Current Station
Airport
Location: Cordoba,
Elevation: 302 ft
Nearby Weather Stations

Elev 302 ft 37.84 °N, 4.85 °W | Updated 12 minutes ago

Rain
Rain Drizzle
59 °F
Feels Like 59 °F
N
14
Wind Variable Wind from WSW

Today
High -- | Low -- °F
--% Chance of Precip.
Yesterday
High -- | Low -- °F
Precip. -- in
Pressure 30.04 in
Visibility 1.9 miles
Clouds Overcast 800 ft
Dew Point 59 °F
Humidity 100%
Rainfall 0.00 in
Snow Depth Not available.
8:13 AM 6:54 PM
Waxing Crescent, 21% visible
METAR LEBA 121500Z 25012KT 220V280 3000 RADZ OVC008 15/15 Q1017
Pressure 30.04 in
Visibility 1.9 miles
Clouds Overcast 800 ft
Dew Point 59 °F
Humidity 100%
Rainfall 0.00 in
Snow Depth Not available.
8:13 AM 6:54 PM
Waxing Crescent, 21% visible
METAR LEBA 121500Z 25012KT 220V280 3000 RADZ OVC008 15/15 Q1017

10-Day Weather Forecast

Almanac

Astronomy

Feb. 12, 2016 Rise Set
Actual Time
Civil Twilight
Nautical Twilight
Astronomical Twilight
Moon
Length of Visible Light
Length of Day
Tomorrow will be .
, % of the Moon is Illuminated

Today's Extremes

Country Highs Country Lows

Community

WunderPhotos

Upload Photos

1,892,325 photos uploaded!

WunderBlog® & News

Nearby

Air Quality

  Air Quality AQ Index Pollutant
Not available.

Snow Depth

Station Depth Elevation

Earthquake Activity

City Distance Mag. Time & Date
Minimum magnitude displayed is 2.5.

Coastal Water Temperatures

Place Temperature

Stations

Nearby Weather Stations

Station Location Temp. Windchill Dew Point Humidity Wind Precip. Elev Updated Type